createdAt,value
2022-10-05T00:00:24.078Z,101183.09
2022-10-05T00:01:29.163Z,101179.34
2022-10-05T00:02:33.386Z,101178.34
2022-10-05T00:03:37.263Z,101187.19
2022-10-05T00:04:39.429Z,101178.94
2022-10-05T00:05:42.790Z,101180.19
2022-10-05T00:06:47.712Z,101182.22
2022-10-05T00:07:52.061Z,101189.28
2022-10-05T00:08:54.206Z,101188.22
2022-10-05T00:09:59.701Z,101193.59
2022-10-05T00:11:01.847Z,101191.53
2022-10-05T00:12:14.407Z,101196.69
2022-10-05T00:13:20.152Z,101205.38
2022-10-05T00:14:28.852Z,101190.06
2022-10-05T00:15:32.325Z,101197.94
2022-10-05T00:16:36.085Z,101192.34
2022-10-05T00:17:38.303Z,101196.66
2022-10-05T00:18:41.633Z,101191.28
2022-10-05T00:19:44.354Z,101187.56
2022-10-05T00:20:49.197Z,101189.22
2022-10-05T00:21:51.228Z,101187.38
2022-10-05T00:22:59.368Z,101184.69
2022-10-05T00:24:01.751Z,101182.81
2022-10-05T00:25:13.755Z,101184.47
2022-10-05T00:26:20.381Z,101192.53
2022-10-05T00:27:26.269Z,101181.78
2022-10-05T00:28:30.885Z,101185.28
2022-10-05T00:29:35.628Z,101185.50
2022-10-05T00:30:39.200Z,101183.63
2022-10-05T00:31:42.331Z,101183.63
2022-10-05T00:32:45.275Z,101189.00
2022-10-05T00:33:48.996Z,101182.00
2022-10-05T00:34:51.059Z,101190.06
2022-10-05T00:35:54.624Z,101185.50
2022-10-05T00:36:56.667Z,101187.38
2022-10-05T00:37:59.675Z,101188.16
2022-10-05T00:39:02.248Z,101186.31
2022-10-05T00:40:15.949Z,101183.63
2022-10-05T00:41:24.056Z,101183.84
2022-10-05T00:42:42.074Z,101173.09
2022-10-05T00:44:04.322Z,101181.16
2022-10-05T00:45:13.164Z,101180.09
2022-10-05T00:46:22.728Z,101175.34
2022-10-05T00:47:38.022Z,101185.50
2022-10-05T00:48:48.404Z,101182.00
2022-10-05T00:50:08.019Z,101187.16
2022-10-05T00:51:22.284Z,101184.47
2022-10-05T00:52:38.317Z,101178.03
2022-10-05T00:53:50.413Z,101173.72
2022-10-05T00:55:04.166Z,101164.59
2022-10-05T00:56:20.994Z,101162.75
2022-10-05T00:57:38.977Z,101165.44
2022-10-05T00:58:53.668Z,101157.38
2022-10-05T01:00:05.397Z,101157.59
2022-10-05T01:01:14.708Z,101155.50
2022-10-05T01:02:29.256Z,101153.63
2022-10-05T01:03:48.868Z,101146.41
2022-10-05T01:04:54.290Z,101140.19
2022-10-05T01:06:06.260Z,101135.66
2022-10-05T01:07:16.414Z,101140.19
2022-10-05T01:08:34.004Z,101128.63
2022-10-05T01:09:45.318Z,101126.97
2022-10-05T01:10:57.154Z,101128.84
2022-10-05T01:12:09.023Z,101132.56
2022-10-05T01:13:24.529Z,101136.09
2022-10-05T01:14:32.494Z,101137.13
2022-10-05T01:15:41.982Z,101139.81
2022-10-05T01:16:51.107Z,101139.81
2022-10-05T01:18:03.088Z,101138.16
2022-10-05T01:19:20.651Z,101135.47
2022-10-05T01:20:31.961Z,101133.81
2022-10-05T01:21:42.378Z,101146.22
2022-10-05T01:23:11.936Z,101141.06
2022-10-05T01:24:43.903Z,101132.19
2022-10-05T01:25:58.974Z,101134.03
2022-10-05T01:27:17.049Z,101134.03
2022-10-05T01:28:24.197Z,101141.28
2022-10-05T01:29:36.478Z,101138.59
2022-10-05T01:30:43.900Z,101135.91
2022-10-05T01:31:55.867Z,101135.91
2022-10-05T01:33:07.286Z,101131.56
2022-10-05T01:34:23.095Z,101129.72
2022-10-05T01:35:36.585Z,101128.88
2022-10-05T01:36:49.916Z,101115.44
2022-10-05T01:38:05.173Z,101113.81
2022-10-05T01:39:18.826Z,101108.66
2022-10-05T01:40:34.323Z,101110.50
2022-10-05T01:41:45.003Z,101111.53
2022-10-05T01:43:01.157Z,101112.56
2022-10-05T01:44:12.936Z,101109.09
2022-10-05T01:45:23.552Z,101111.94
2022-10-05T01:46:32.508Z,101106.00
2022-10-05T01:47:44.618Z,101106.78
2022-10-05T01:48:57.155Z,101114.28
2022-10-05T01:50:04.621Z,101104.31
2022-10-05T01:51:16.325Z,101109.91
2022-10-05T01:52:31.370Z,101113.44
2022-10-05T01:53:48.296Z,101109.91
2022-10-05T01:55:03.451Z,101107.44
2022-10-05T01:56:14.785Z,101113.66
2022-10-05T01:57:27.496Z,101113.66
2022-10-05T01:58:40.772Z,101111.97
2022-10-05T02:00:02.421Z,101119.81
2022-10-05T02:01:25.370Z,101116.94
2022-10-05T02:02:31.776Z,101113.44
2022-10-05T02:03:41.354Z,101115.28
2022-10-05T02:05:04.422Z,101113.44
2022-10-05T02:06:14.343Z,101112.59
2022-10-05T02:07:21.414Z,101108.06
2022-10-05T02:08:31.103Z,101106.41
2022-10-05T02:09:37.221Z,101108.28
2022-10-05T02:10:47.064Z,101103.72
2022-10-05T02:11:54.908Z,101099.38
2022-10-05T02:13:02.893Z,101096.47
2022-10-05T02:14:11.273Z,101099.16
2022-10-05T02:15:23.702Z,101096.47
2022-10-05T02:16:31.352Z,101093.78
2022-10-05T02:17:41.781Z,101097.53
2022-10-05T02:18:50.445Z,101097.53
2022-10-05T02:19:58.179Z,101098.34
2022-10-05T02:21:03.085Z,101095.06
2022-10-05T02:22:09.744Z,101099.38
2022-10-05T02:23:19.499Z,101102.06
2022-10-05T02:24:26.101Z,101101.25
2022-10-05T02:25:33.049Z,101100.44
2022-10-05T02:26:37.668Z,101102.28
2022-10-05T02:27:43.588Z,101101.44
2022-10-05T02:28:52.436Z,101099.59
2022-10-05T02:30:00.287Z,101106.81
2022-10-05T02:31:09.187Z,101095.91
2022-10-05T02:32:15.667Z,101096.91
2022-10-05T02:33:24.554Z,101109.50
2022-10-05T02:34:30.260Z,101105.19
2022-10-05T02:35:39.861Z,101107.88
2022-10-05T02:36:42.115Z,101097.34
2022-10-05T02:37:54.417Z,101106.22
2022-10-05T02:39:05.366Z,101093.81
2022-10-05T02:40:20.602Z,101104.56
2022-10-05T02:41:38.872Z,101099.19
2022-10-05T02:42:49.985Z,101098.38
2022-10-05T02:44:04.525Z,101102.09
2022-10-05T02:45:17.242Z,101084.94
2022-10-05T02:46:28.449Z,101081.44
2022-10-05T02:47:38.989Z,101081.44
2022-10-05T02:48:49.704Z,101077.94
2022-10-05T02:49:57.857Z,101076.06
2022-10-05T02:51:15.391Z,101069.03
2022-10-05T02:52:23.378Z,101064.72
2022-10-05T02:53:35.311Z,101063.88
2022-10-05T02:54:47.575Z,101063.06
2022-10-05T02:56:00.964Z,101057.09
2022-10-05T02:57:10.143Z,101057.09
2022-10-05T02:58:16.477Z,101055.44
2022-10-05T02:59:26.525Z,101059.16
2022-10-05T03:00:35.194Z,101047.59
2022-10-05T03:01:44.500Z,101052.34
2022-10-05T03:02:58.187Z,101051.53
2022-10-05T03:04:10.951Z,101058.75
2022-10-05T03:05:21.330Z,101054.44
2022-10-05T03:06:29.295Z,101045.56
2022-10-05T03:07:40.440Z,101056.28
2022-10-05T03:08:48.827Z,101049.25
2022-10-05T03:10:01.582Z,101055.47
2022-10-05T03:11:15.155Z,101053.59
2022-10-05T03:12:36.058Z,101069.72
2022-10-05T03:13:47.293Z,101059.81
2022-10-05T03:15:01.849Z,101055.25
2022-10-05T03:16:19.574Z,101053.59
2022-10-05T03:17:28.588Z,101051.75
2022-10-05T03:18:44.563Z,101056.91
2022-10-05T03:20:04.571Z,101055.84
2022-10-05T03:21:20.585Z,101058.53
2022-10-05T03:22:32.051Z,101057.72
2022-10-05T03:23:44.578Z,101048.84
2022-10-05T03:25:05.111Z,101047.81
2022-10-05T03:26:20.866Z,101050.50
2022-10-05T03:27:34.401Z,101033.31
2022-10-05T03:28:43.771Z,101042.22
2022-10-05T03:29:54.552Z,101043.03
2022-10-05T03:31:03.663Z,101042.22
2022-10-05T03:32:19.585Z,101042.00
2022-10-05T03:33:35.387Z,101041.78
2022-10-05T03:34:47.016Z,101040.97
2022-10-05T03:35:56.531Z,101041.78
2022-10-05T03:37:05.751Z,101042.63
2022-10-05T03:38:14.753Z,101047.16
2022-10-05T03:39:24.092Z,101042.00
2022-10-05T03:40:33.023Z,101039.72
2022-10-05T03:41:41.199Z,101033.50
2022-10-05T03:42:58.000Z,101029.81
2022-10-05T03:44:13.553Z,101027.94
2022-10-05T03:45:26.867Z,101037.63
2022-10-05T03:46:39.888Z,101026.06
2022-10-05T03:47:50.554Z,101021.31
2022-10-05T03:49:01.505Z,101012.41
2022-10-05T03:50:24.119Z,101023.16
2022-10-05T03:51:35.058Z,101020.47
2022-10-05T03:52:44.680Z,101019.66
2022-10-05T03:53:52.813Z,101015.09
2022-10-05T03:54:59.056Z,101015.94
2022-10-05T03:56:06.531Z,101025.63
2022-10-05T03:57:14.570Z,101018.63
2022-10-05T03:58:22.236Z,101020.25
2022-10-05T03:59:32.841Z,101016.75
2022-10-05T04:00:40.773Z,101013.25
2022-10-05T04:01:48.893Z,101014.09
2022-10-05T04:02:57.172Z,101002.50
2022-10-05T04:04:05.138Z,101008.72
2022-10-05T04:05:17.123Z,101003.34
2022-10-05T04:06:24.276Z,101010.56
2022-10-05T04:07:36.568Z,101013.25
2022-10-05T04:08:47.871Z,101016.38
2022-10-05T04:09:54.868Z,101015.09
2022-10-05T04:11:00.705Z,101026.91
2022-10-05T04:12:10.000Z,101022.34
2022-10-05T04:13:19.636Z,101017.78
2022-10-05T04:14:25.776Z,101016.97
2022-10-05T04:15:36.072Z,101026.06
2022-10-05T04:16:43.329Z,101018.00
2022-10-05T04:17:50.366Z,101015.31
2022-10-05T04:18:59.447Z,101021.75
2022-10-05T04:20:08.227Z,101032.25
2022-10-05T04:21:22.699Z,101026.06
2022-10-05T04:22:33.158Z,101026.06
2022-10-05T04:23:51.476Z,101026.06
2022-10-05T04:25:02.616Z,101026.06
2022-10-05T04:26:09.924Z,101022.34
2022-10-05T04:27:17.825Z,101026.06
2022-10-05T04:28:31.923Z,101015.31
2022-10-05T04:29:42.071Z,101017.78
2022-10-05T04:30:47.939Z,101018.00
2022-10-05T04:32:07.536Z,101014.50
2022-10-05T04:33:11.584Z,101018.84
2022-10-05T04:34:31.695Z,101020.69
2022-10-05T04:35:47.909Z,101027.13
2022-10-05T04:36:57.622Z,101010.78
2022-10-05T04:38:11.713Z,101007.25
2022-10-05T04:39:21.500Z,101008.94
2022-10-05T04:40:39.671Z,101008.09
2022-10-05T04:41:56.939Z,101001.88
2022-10-05T04:43:08.410Z,101003.78
2022-10-05T04:44:45.641Z,101007.25
2022-10-05T04:46:10.720Z,101009.94
2022-10-05T04:47:45.736Z,101005.00
2022-10-05T04:49:15.197Z,101005.63
2022-10-05T04:50:27.799Z,101005.63
2022-10-05T04:51:51.158Z,100999.19
2022-10-05T04:53:04.114Z,101003.78
2022-10-05T04:54:18.027Z,101002.94
2022-10-05T04:55:30.869Z,101003.97
2022-10-05T04:56:39.650Z,100995.91
2022-10-05T04:57:49.723Z,101001.28
2022-10-05T04:59:15.711Z,101000.47
2022-10-05T05:00:23.435Z,100991.59
2022-10-05T05:01:45.938Z,101003.16
2022-10-05T05:03:14.144Z,101005.84
2022-10-05T05:04:47.146Z,101002.31
2022-10-05T05:06:16.870Z,101006.66
2022-10-05T05:07:38.494Z,101005.63
2022-10-05T05:09:00.073Z,101003.97
2022-10-05T05:10:33.573Z,101002.09
2022-10-05T05:11:49.327Z,101002.09
2022-10-05T05:13:04.994Z,101000.25
2022-10-05T05:14:28.050Z,101008.31
2022-10-05T05:15:42.034Z,101006.47
2022-10-05T05:16:48.894Z,100994.88
2022-10-05T05:18:03.803Z,101005.63
2022-10-05T05:19:18.940Z,100996.50
2022-10-05T05:20:24.985Z,100997.56
2022-10-05T05:21:39.209Z,100999.19
2022-10-05T05:22:48.713Z,100988.47
2022-10-05T05:24:04.086Z,100991.13
2022-10-05T05:25:23.072Z,100993.84
2022-10-05T05:26:38.757Z,101001.88
2022-10-05T05:27:44.525Z,100997.13
2022-10-05T05:28:53.818Z,100992.81
2022-10-05T05:30:05.055Z,100998.19
2022-10-05T05:31:18.773Z,100998.97
2022-10-05T05:32:32.181Z,101004.56
2022-10-05T05:33:45.314Z,100990.34
2022-10-05T05:35:06.989Z,100995.50
2022-10-05T05:36:23.695Z,100992.19
2022-10-05T05:37:36.960Z,100987.84
2022-10-05T05:38:43.500Z,100992.19
2022-10-05T05:39:54.818Z,100990.53
2022-10-05T05:41:08.573Z,100988.06
2022-10-05T05:42:23.887Z,100985.16
2022-10-05T05:43:33.164Z,100984.56
2022-10-05T05:44:42.345Z,100980.84
2022-10-05T05:45:53.520Z,100990.53
2022-10-05T05:47:04.605Z,100994.72
2022-10-05T05:48:17.079Z,100988.91
2022-10-05T05:49:26.126Z,100986.00
2022-10-05T05:50:43.229Z,100983.31
2022-10-05T05:51:52.388Z,100976.09
2022-10-05T05:52:59.599Z,100981.44
2022-10-05T05:54:19.228Z,100978.75
2022-10-05T05:55:29.887Z,100977.09
2022-10-05T05:56:38.616Z,100993.22
2022-10-05T05:57:44.899Z,100993.22
2022-10-05T05:58:53.052Z,100988.91
2022-10-05T06:00:06.153Z,100988.28
2022-10-05T06:01:33.734Z,100987.03
2022-10-05T06:02:44.623Z,100987.84
2022-10-05T06:03:53.291Z,100978.97
2022-10-05T06:05:03.053Z,100966.34
2022-10-05T06:06:10.834Z,100968.84
2022-10-05T06:07:16.737Z,100959.97
2022-10-05T06:08:28.980Z,100962.44
2022-10-05T06:09:43.934Z,100980.41
2022-10-05T06:11:00.831Z,100979.38
2022-10-05T06:12:07.473Z,100982.06
2022-10-05T06:13:17.276Z,100972.34
2022-10-05T06:14:25.093Z,100977.50
2022-10-05T06:15:36.103Z,100982.88
2022-10-05T06:16:46.474Z,100963.25
2022-10-05T06:17:52.914Z,100976.69
2022-10-05T06:18:58.966Z,100974.00
2022-10-05T06:20:05.485Z,100984.75
2022-10-05T06:21:19.654Z,100981.84
2022-10-05T06:22:29.266Z,100982.66
2022-10-05T06:23:40.916Z,100978.94
2022-10-05T06:24:56.383Z,100983.47
2022-10-05T06:26:12.733Z,100973.34
2022-10-05T06:27:26.145Z,100983.88
2022-10-05T06:28:29.870Z,100967.81
2022-10-05T06:29:49.415Z,100978.50
2022-10-05T06:31:00.985Z,100979.13
2022-10-05T06:32:11.750Z,100972.69
2022-10-05T06:33:28.682Z,100984.03
2022-10-05T06:34:49.726Z,100984.88
2022-10-05T06:36:09.205Z,100992.72
2022-10-05T06:37:16.373Z,100994.13
2022-10-05T06:38:30.930Z,100992.50
2022-10-05T06:40:00.753Z,100992.28
2022-10-05T06:41:16.807Z,100993.91
2022-10-05T06:42:32.740Z,100986.47
2022-10-05T06:43:59.913Z,100992.66
2022-10-05T06:45:20.782Z,101003.19
2022-10-05T06:46:49.087Z,100994.09
2022-10-05T06:48:18.393Z,101000.06
2022-10-05T06:49:54.454Z,100998.22
2022-10-05T06:51:32.443Z,100996.94
2022-10-05T06:53:02.075Z,100984.34
2022-10-05T06:54:14.993Z,100998.63
2022-10-05T06:55:30.551Z,100988.69
2022-10-05T06:56:40.125Z,100991.16
2022-10-05T06:57:53.285Z,100991.75
2022-10-05T06:59:04.529Z,100995.25
2022-10-05T07:00:18.037Z,100986.75
2022-10-05T07:01:31.955Z,100990.28
2022-10-05T07:02:41.664Z,100987.38
2022-10-05T07:04:03.026Z,100989.84
2022-10-05T07:05:29.130Z,100981.78
2022-10-05T07:06:39.180Z,100987.75
2022-10-05T07:07:48.002Z,100991.88
2022-10-05T07:09:08.353Z,100988.16
2022-10-05T07:10:25.778Z,100974.47
2022-10-05T07:11:48.134Z,100967.84
2022-10-05T07:13:09.226Z,100971.97
2022-10-05T07:14:31.633Z,100971.72
2022-10-05T07:15:42.768Z,100975.03
2022-10-05T07:17:02.848Z,100972.13
2022-10-05T07:18:27.157Z,100978.09
2022-10-05T07:19:38.598Z,100983.25
2022-10-05T07:20:49.360Z,100986.78
2022-10-05T07:22:09.154Z,100992.97
2022-10-05T07:23:31.748Z,100985.50
2022-10-05T07:24:40.682Z,100972.66
2022-10-05T07:25:50.109Z,100980.50
2022-10-05T07:27:03.102Z,100983.81
2022-10-05T07:28:08.247Z,100992.50
2022-10-05T07:29:23.374Z,100979.63
2022-10-05T07:30:27.059Z,100978.59
2022-10-05T07:31:39.342Z,100986.66
2022-10-05T07:32:49.460Z,100988.06
2022-10-05T07:33:56.298Z,100991.38
2022-10-05T07:35:04.441Z,100985.75
2022-10-05T07:36:32.311Z,100986.38
2022-10-05T07:37:57.877Z,100983.47
2022-10-05T07:39:14.809Z,100985.69
2022-10-05T07:40:24.543Z,100984.66
2022-10-05T07:41:38.193Z,100974.72
2022-10-05T07:42:52.309Z,100979.06
2022-10-05T07:44:13.349Z,100978.00
2022-10-05T07:45:26.460Z,100985.06
2022-10-05T07:46:40.091Z,100979.06
2022-10-05T07:47:51.652Z,100981.53
2022-10-05T07:49:03.334Z,100980.47
2022-10-05T07:50:18.464Z,100984.00
2022-10-05T07:51:30.673Z,100989.38
2022-10-05T07:52:37.890Z,100998.28
2022-10-05T07:53:48.854Z,100990.22
2022-10-05T07:55:02.086Z,100985.84
2022-10-05T07:56:13.547Z,100987.75
2022-10-05T07:57:26.355Z,100994.97
2022-10-05T07:58:35.692Z,100994.16
2022-10-05T07:59:44.711Z,100993.34
2022-10-05T08:00:59.582Z,100989.81
2022-10-05T08:02:13.776Z,100988.78
2022-10-05T08:03:28.977Z,100992.50
2022-10-05T08:04:41.798Z,100989.00
2022-10-05T08:05:47.011Z,100984.44
2022-10-05T08:06:53.184Z,100993.34
2022-10-05T08:08:01.746Z,101002.81
2022-10-05T08:09:12.356Z,100994.97
2022-10-05T08:10:25.367Z,100996.38
2022-10-05T08:11:33.313Z,100994.53
2022-10-05T08:12:51.567Z,100998.66
2022-10-05T08:13:58.244Z,101000.09
2022-10-05T08:15:05.496Z,100999.88
2022-10-05T08:16:13.586Z,100997.56
2022-10-05T08:17:25.573Z,100986.59
2022-10-05T08:18:43.631Z,101001.25
2022-10-05T08:19:51.464Z,100995.41
2022-10-05T08:20:57.828Z,101000.13
2022-10-05T08:22:05.934Z,101008.56
2022-10-05T08:23:18.937Z,101000.66
2022-10-05T08:24:39.468Z,101009.72
2022-10-05T08:25:49.160Z,100998.25
2022-10-05T08:27:01.164Z,101006.94
2022-10-05T08:28:14.692Z,101001.69
2022-10-05T08:29:23.001Z,101003.94
2022-10-05T08:30:25.178Z,101008.88
2022-10-05T08:31:33.680Z,101008.22
2022-10-05T08:32:42.085Z,101006.91
2022-10-05T08:33:56.725Z,100994.06
2022-10-05T08:35:05.130Z,101003.91
2022-10-05T08:36:13.128Z,101003.50
2022-10-05T08:37:21.148Z,101003.03
2022-10-05T08:38:31.481Z,100997.19
2022-10-05T08:39:40.203Z,100996.72
2022-10-05T08:41:16.719Z,101000.84
2022-10-05T08:42:44.997Z,101007.63
2022-10-05T08:44:06.363Z,101006.97
2022-10-05T08:45:49.010Z,101007.91
2022-10-05T08:47:19.698Z,101004.31
2022-10-05T08:48:36.127Z,100998.25
2022-10-05T08:50:05.898Z,100995.91
2022-10-05T08:51:48.142Z,101004.97
2022-10-05T08:53:20.333Z,100992.91
2022-10-05T08:54:53.567Z,101000.31
2022-10-05T08:56:28.511Z,101001.13
2022-10-05T08:58:14.609Z,100995.28
2022-10-05T08:59:41.580Z,101001.75
2022-10-05T09:00:52.702Z,100995.75
2022-10-05T09:02:17.585Z,100992.69
2022-10-05T09:03:36.722Z,100994.78
2022-10-05T09:04:55.226Z,100989.63
2022-10-05T09:06:23.516Z,100989.63
2022-10-05T09:07:56.048Z,100987.53
2022-10-05T09:09:21.423Z,100994.34
2022-10-05T09:11:12.215Z,100983.09
2022-10-05T09:12:37.488Z,100987.78
2022-10-05T09:14:11.630Z,100981.50
2022-10-05T09:15:35.488Z,100979.72
2022-10-05T09:16:52.396Z,100995.00
2022-10-05T09:18:24.213Z,100990.78
2022-10-05T09:19:51.304Z,100982.56
2022-10-05T09:20:55.991Z,100988.91
2022-10-05T09:22:02.257Z,100983.66
2022-10-05T09:23:14.738Z,100974.84
2022-10-05T09:24:27.209Z,100974.97
2022-10-05T09:25:43.875Z,100976.75
2022-10-05T09:27:11.452Z,100976.03
2022-10-05T09:28:23.259Z,100975.09
2022-10-05T09:29:53.481Z,100969.81
2022-10-05T09:31:28.034Z,100971.22
2022-10-05T09:32:53.674Z,100969.13
2022-10-05T09:34:22.351Z,100972.41
2022-10-05T09:35:57.336Z,100971.09
2022-10-05T09:37:33.267Z,100975.22
2022-10-05T09:38:56.721Z,100973.06
2022-10-05T09:40:55.283Z,100961.84
2022-10-05T09:42:28.285Z,100965.44
2022-10-05T09:43:59.757Z,100963.94
2022-10-05T09:45:31.274Z,100965.34
2022-10-05T09:46:57.312Z,100954.53
2022-10-05T09:48:45.830Z,100962.41
2022-10-05T09:50:17.732Z,100965.09
2022-10-05T09:52:00.357Z,100962.19
2022-10-05T09:53:40.517Z,100962.75
2022-10-05T09:55:10.108Z,100950.66
2022-10-05T09:56:34.499Z,100956.41
2022-10-05T09:58:03.820Z,100967.81
2022-10-05T09:59:36.079Z,100951.34
2022-10-05T10:01:03.861Z,100962.97
2022-10-05T10:02:34.913Z,100954.63
2022-10-05T10:04:12.846Z,100962.50
2022-10-05T10:05:34.583Z,100970.59
2022-10-05T10:07:05.009Z,100958.16
2022-10-05T10:08:23.532Z,100953.81
2022-10-05T10:09:40.320Z,100960.50
2022-10-05T10:10:55.881Z,100955.59
2022-10-05T10:12:25.526Z,100956.06
2022-10-05T10:13:53.753Z,100957.34
2022-10-05T10:15:33.031Z,100959.50
2022-10-05T10:16:59.770Z,100957.00
2022-10-05T10:18:19.197Z,100952.91
2022-10-05T10:20:01.045Z,100954.19
2022-10-05T10:21:22.520Z,100946.78
2022-10-05T10:22:54.577Z,100945.63
2022-10-05T10:24:11.455Z,100947.75
2022-10-05T10:25:37.112Z,100949.03
2022-10-05T10:27:05.813Z,100948.66
2022-10-05T10:28:31.868Z,100944.59
2022-10-05T10:29:59.592Z,100945.84
2022-10-05T10:31:27.423Z,100948.00
2022-10-05T10:33:03.893Z,100950.09
2022-10-05T10:34:59.152Z,100941.41
2022-10-05T10:36:07.252Z,100942.50
2022-10-05T10:37:33.677Z,100938.97
2022-10-05T10:38:41.405Z,100944.59
2022-10-05T10:40:07.572Z,100948.09
2022-10-05T10:41:38.645Z,100946.47
2022-10-05T10:42:48.973Z,100947.28
2022-10-05T10:44:28.122Z,100954.56
2022-10-05T10:45:48.830Z,100949.41
2022-10-05T10:47:18.079Z,100950.69
2022-10-05T10:48:57.407Z,100949.28
2022-10-05T10:50:25.849Z,100949.53
2022-10-05T10:51:53.822Z,100940.59
2022-10-05T10:53:09.953Z,100948.94
2022-10-05T10:54:53.355Z,100942.94
2022-10-05T10:56:12.707Z,100953.16
2022-10-05T10:57:25.315Z,100953.97
2022-10-05T10:59:08.569Z,100955.03
2022-10-05T11:00:35.328Z,100954.44
2022-10-05T11:01:44.518Z,100950.69
2022-10-05T11:03:21.794Z,100952.59
2022-10-05T11:04:54.133Z,100944.72
2022-10-05T11:06:32.890Z,100945.41
2022-10-05T11:08:00.828Z,100943.31
2022-10-05T11:09:35.695Z,100937.09
2022-10-05T11:11:10.739Z,100936.53
2022-10-05T11:12:48.754Z,100941.09
2022-10-05T11:14:26.640Z,100937.56
2022-10-05T11:15:53.186Z,100939.41
2022-10-05T11:17:29.321Z,100935.69
2022-10-05T11:18:52.747Z,100928.44
2022-10-05T11:20:17.655Z,100936.28
2022-10-05T11:21:36.513Z,100938.75
2022-10-05T11:22:53.586Z,100929.81
2022-10-05T11:24:48.583Z,100935.22
2022-10-05T11:26:05.414Z,100928.97
2022-10-05T11:27:28.285Z,100924.66
2022-10-05T11:29:04.211Z,100933.34
2022-10-05T11:30:31.553Z,100933.34
2022-10-05T11:32:02.828Z,100931.44
2022-10-05T11:33:42.610Z,100929.34
2022-10-05T11:35:03.565Z,100923.94
2022-10-05T11:36:30.889Z,100918.56
2022-10-05T11:38:08.882Z,100926.41
2022-10-05T11:39:30.361Z,100922.66
2022-10-05T11:41:08.292Z,100910.22
2022-10-05T11:42:49.560Z,100918.91
2022-10-05T11:44:11.397Z,100915.16
2022-10-05T11:45:22.379Z,100913.28
2022-10-05T11:46:31.182Z,100913.28
2022-10-05T11:47:41.538Z,100914.09
2022-10-05T11:49:01.578Z,100914.69
2022-10-05T11:50:17.667Z,100917.16
2022-10-05T11:51:30.757Z,100907.19
2022-10-05T11:52:41.343Z,100905.06
2022-10-05T11:53:53.878Z,100902.13
2022-10-05T11:55:11.132Z,100904.59
2022-10-05T11:56:24.326Z,100897.06
2022-10-05T11:57:34.678Z,100895.19
2022-10-05T11:58:42.290Z,100894.13
2022-10-05T11:59:53.064Z,100897.41
2022-10-05T12:00:59.764Z,100886.38
2022-10-05T12:02:20.971Z,100894.03
2022-10-05T12:03:54.685Z,100880.28
2022-10-05T12:05:12.991Z,100918.19
2022-10-05T12:06:32.098Z,100883.34
2022-10-05T12:07:46.553Z,100887.78
2022-10-05T12:09:19.163Z,100877.34
2022-10-05T12:10:34.288Z,100880.03
2022-10-05T12:12:04.097Z,100890.56
2022-10-05T12:13:34.369Z,100854.69
2022-10-05T12:14:50.077Z,100870.38
2022-10-05T12:16:07.015Z,100870.75
2022-10-05T12:17:32.864Z,100872.41
2022-10-05T12:18:58.139Z,100878.94
2022-10-05T12:20:09.108Z,100867.69
2022-10-05T12:21:23.639Z,100871.78
2022-10-05T12:22:33.006Z,100861.56
2022-10-05T12:23:42.180Z,100860.81
2022-10-05T12:25:01.728Z,100866.56
2022-10-05T12:26:08.081Z,100853.66
2022-10-05T12:27:15.845Z,100856.94
2022-10-05T12:28:25.583Z,100855.13
2022-10-05T12:29:35.934Z,100851.97
2022-10-05T12:31:08.674Z,100847.13
2022-10-05T12:32:17.730Z,100840.44
2022-10-05T12:33:25.819Z,100842.38
2022-10-05T12:34:43.324Z,100841.09
2022-10-05T12:35:51.667Z,100830.06
2022-10-05T12:37:03.905Z,100848.47
2022-10-05T12:38:16.683Z,100845.28
2022-10-05T12:39:27.176Z,100832.09
2022-10-05T12:40:40.706Z,100849.47
2022-10-05T12:41:48.205Z,100832.75
2022-10-05T12:42:59.599Z,100836.06
2022-10-05T12:44:14.092Z,100841.78
2022-10-05T12:45:27.696Z,100834.22
2022-10-05T12:46:39.815Z,100839.16
2022-10-05T12:48:00.580Z,100828.09
2022-10-05T12:49:22.502Z,100831.59
2022-10-05T12:50:28.576Z,100832.44
2022-10-05T12:51:40.099Z,100830.31
2022-10-05T12:53:02.940Z,100830.31
2022-10-05T12:54:18.000Z,100816.31
2022-10-05T12:55:26.224Z,100830.66
2022-10-05T12:56:44.801Z,100826.38
2022-10-05T12:57:58.009Z,100820.97
2022-10-05T12:59:10.497Z,100820.16
2022-10-05T13:00:20.307Z,100818.84
2022-10-05T13:01:39.819Z,100819.91
2022-10-05T13:02:47.985Z,100812.06
2022-10-05T13:03:56.578Z,100820.41
2022-10-05T13:05:15.191Z,100817.72
2022-10-05T13:06:28.007Z,100821.97
2022-10-05T13:07:46.193Z,100822.03
2022-10-05T13:08:53.098Z,100814.75
2022-10-05T13:10:02.897Z,100812.06
2022-10-05T13:11:15.119Z,100815.31
2022-10-05T13:12:29.833Z,100813.44
2022-10-05T13:13:48.824Z,100819.66
2022-10-05T13:15:04.445Z,100809.91
2022-10-05T13:16:23.552Z,100813.44
2022-10-05T13:17:35.382Z,100809.09
2022-10-05T13:18:50.893Z,100814.50
2022-10-05T13:19:59.250Z,100814.50
2022-10-05T13:21:06.955Z,100816.13
2022-10-05T13:22:36.822Z,100809.69
2022-10-05T13:23:55.096Z,100805.91
2022-10-05T13:25:10.210Z,100809.19
2022-10-05T13:26:18.303Z,100804.28
2022-10-05T13:27:27.729Z,100808.94
2022-10-05T13:28:37.689Z,100800.81
2022-10-05T13:29:48.974Z,100812.94
2022-10-05T13:31:03.056Z,100795.34
2022-10-05T13:32:15.152Z,100797.78
2022-10-05T13:33:26.127Z,100797.53
2022-10-05T13:34:38.303Z,100808.34
2022-10-05T13:35:45.019Z,100801.06
2022-10-05T13:37:05.968Z,100797.28
2022-10-05T13:38:22.248Z,100801.06
2022-10-05T13:39:40.381Z,100806.22
2022-10-05T13:40:49.590Z,100807.06
2022-10-05T13:41:59.985Z,100800.31
2022-10-05T13:43:14.966Z,100807.59
2022-10-05T13:44:26.054Z,100804.91
2022-10-05T13:45:35.668Z,100800.31
2022-10-05T13:46:44.446Z,100796.78
2022-10-05T13:48:01.004Z,100801.16
2022-10-05T13:49:18.441Z,100793.03
2022-10-05T13:50:26.605Z,100788.66
2022-10-05T13:51:40.699Z,100797.88
2022-10-05T13:52:55.685Z,100799.50
2022-10-05T13:54:05.399Z,100800.31
2022-10-05T13:55:19.529Z,100797.88
2022-10-05T13:56:25.022Z,100802.44
2022-10-05T13:57:45.120Z,100803.78
2022-10-05T13:58:53.425Z,100795.41
2022-10-05T13:59:58.451Z,100785.41
2022-10-05T14:01:04.139Z,100785.41
2022-10-05T14:02:09.794Z,100790.84
2022-10-05T14:03:28.014Z,100792.97
2022-10-05T14:04:48.571Z,100790.25
2022-10-05T14:06:01.550Z,100794.59
2022-10-05T14:07:22.490Z,100790.25
2022-10-05T14:08:33.345Z,100785.91
2022-10-05T14:09:36.989Z,100785.66
2022-10-05T14:10:42.238Z,100784.84
2022-10-05T14:11:49.470Z,100780.00
2022-10-05T14:12:55.404Z,100789.75
2022-10-05T14:14:15.181Z,100792.47
2022-10-05T14:15:21.062Z,100791.63
2022-10-05T14:16:26.325Z,100797.03
2022-10-05T14:17:41.250Z,100790.00
2022-10-05T14:18:54.025Z,100800.00
2022-10-05T14:20:00.995Z,100798.38
2022-10-05T14:21:17.820Z,100801.31